Time;durP1;ratioP1;P1;durP2;ratioP2;P2;SDS_P1;SDS_P2;PMS_P1;PMS_P2;Temp;Humidity;BMP_temperature;BMP_pressure;BME280_temperature;BME280_humidity;BME280_pressure;Samples;Min_cycle;Max_cycle;Signal;HPM_P1;HPM_P2
2023/07/16 00:02:04;;;;;;;4.07;1.85;;;19.80;99.90;;;;;;4986641;28;20086;-63
2023/07/16 00:04:31;;;;;;;6.50;1.58;;;19.80;99.90;;;;;;4972553;28;20058;-64
2023/07/16 00:06:56;;;;;;;2.33;1.15;;;19.70;99.90;;;;;;4982944;28;20018;-64
2023/07/16 00:09:22;;;;;;;3.22;1.33;;;19.60;99.90;;;;;;4981754;28;20033;-65
2023/07/16 00:11:48;;;;;;;5.60;1.67;;;19.50;99.90;;;;;;4968412;28;20034;-64
2023/07/16 00:14:13;;;;;;;8.82;1.60;;;19.50;99.90;;;;;;4978773;28;20351;-64
2023/07/16 00:16:39;;;;;;;3.72;1.35;;;19.40;99.90;;;;;;4985689;28;20031;-64
2023/07/16 00:19:04;;;;;;;2.17;1.02;;;19.40;99.90;;;;;;4982550;28;20045;-64
2023/07/16 00:21:30;;;;;;;2.25;1.38;;;19.40;99.90;;;;;;4961893;28;20424;-64
2023/07/16 00:23:56;;;;;;;2.03;1.42;;;19.40;99.90;;;;;;4977858;28;20027;-64
2023/07/16 00:26:22;;;;;;;3.40;1.27;;;19.40;99.90;;;;;;4981288;28;20034;-63
2023/07/16 00:28:47;;;;;;;5.03;1.63;;;19.30;99.90;;;;;;4980969;28;20110;-64
2023/07/16 00:31:14;;;;;;;2.95;1.40;;;19.30;99.90;;;;;;4991022;28;20400;-64
2023/07/16 00:33:39;;;;;;;3.13;1.50;;;19.30;99.90;;;;;;4952049;28;20034;-64
2023/07/16 00:36:05;;;;;;;2.80;1.42;;;19.30;99.90;;;;;;4979232;28;20035;-64
2023/07/16 00:38:31;;;;;;;1.70;1.20;;;19.30;99.90;;;;;;4983119;28;20042;-65
2023/07/16 00:40:56;;;;;;;5.55;1.55;;;19.30;99.90;;;;;;4981793;28;20434;-65
2023/07/16 00:43:22;;;;;;;4.07;1.48;;;19.30;99.90;;;;;;4992507;28;20157;-64
2023/07/16 00:45:49;;;;;;;3.15;1.65;;;19.40;99.90;;;;;;4985019;28;20038;-65
2023/07/16 00:48:15;;;;;;;3.97;1.63;;;19.30;99.90;;;;;;4982444;28;20033;-63
2023/07/16 00:50:41;;;;;;;3.83;1.60;;;19.40;99.90;;;;;;4980926;28;20027;-64
2023/07/16 00:53:10;;;;;;;6.28;1.77;;;19.40;99.90;;;;;;4981890;28;20045;-65
2023/07/16 00:55:36;;;;;;;5.65;1.67;;;19.40;99.90;;;;;;4983624;28;20399;-64
2023/07/16 00:58:05;;;;;;;4.25;1.40;;;19.40;99.90;;;;;;4982261;28;20034;-65
2023/07/16 01:00:32;;;;;;;1.85;1.17;;;19.40;99.90;;;;;;4975259;28;20117;-64
2023/07/16 01:02:57;;;;;;;4.20;1.92;;;19.40;99.90;;;;;;4989034;28;20517;-63
2023/07/16 01:05:26;;;;;;;2.15;1.33;;;19.40;99.90;;;;;;4967979;28;20050;-63
2023/07/16 01:07:59;;;;;;;5.22;1.60;;;19.40;99.90;;;;;;4988420;28;20030;-65
2023/07/16 01:10:26;;;;;;;3.42;1.42;;;19.30;99.90;;;;;;4983239;28;20037;-63
2023/07/16 01:12:55;;;;;;;6.95;1.60;;;19.30;99.90;;;;;;4997101;28;20488;-64
2023/07/16 01:15:21;;;;;;;4.85;1.90;;;19.30;99.90;;;;;;4991811;28;20081;-64
2023/07/16 01:17:46;;;;;;;5.30;1.55;;;19.20;99.90;;;;;;4987764;28;20519;-64
2023/07/16 01:20:12;;;;;;;3.83;1.27;;;19.10;99.90;;;;;;4994751;28;20053;-64
2023/07/16 01:22:58;;;;;;;4.25;1.73;;;19.00;99.90;;;;;;4991755;28;20093;-65
2023/07/16 01:26:24;;;;;;;2.53;1.73;;;18.90;99.90;;;;;;4997640;28;20094;-64
2023/07/16 01:28:56;;;;;;;;;;;18.80;99.90;;;;;;4879497;29;20061;-61
2023/07/16 01:31:23;;;;;;;2.17;1.38;;;18.60;99.90;;;;;;4877401;29;19998;-64
2023/07/16 01:33:50;;;;;;;3.17;1.83;;;18.50;99.90;;;;;;4941644;28;20041;-64
2023/07/16 01:36:18;;;;;;;5.70;2.15;;;18.40;99.90;;;;;;4992647;28;20397;-64
2023/07/16 01:38:44;;;;;;;5.72;1.50;;;18.30;99.90;;;;;;4983020;28;20391;-64
2023/07/16 01:41:10;;;;;;;2.33;1.35;;;18.20;99.90;;;;;;4981697;28;20039;-64
2023/07/16 01:43:36;;;;;;;3.20;1.98;;;18.10;99.90;;;;;;4986587;28;20030;-65
2023/07/16 01:46:02;;;;;;;1.90;1.42;;;18.00;99.90;;;;;;4986966;28;20038;-64
2023/07/16 01:48:32;;;;;;;4.50;1.40;;;18.00;99.90;;;;;;4988989;28;20090;-64
2023/07/16 01:50:57;;;;;;;3.47;1.50;;;18.00;99.90;;;;;;4986382;28;20558;-65
2023/07/16 01:53:23;;;;;;;3.20;1.20;;;17.90;99.90;;;;;;4988408;28;20067;-64
2023/07/16 01:55:48;;;;;;;4.22;1.60;;;17.80;99.90;;;;;;4989177;28;20093;-64
2023/07/16 01:58:14;;;;;;;7.05;1.75;;;17.80;99.90;;;;;;4988825;28;20432;-65
2023/07/16 02:00:40;;;;;;;4.63;1.38;;;17.80;99.90;;;;;;4987452;28;20085;-64
2023/07/16 02:03:06;;;;;;;4.20;1.65;;;17.80;99.90;;;;;;4986680;28;20040;-60
2023/07/16 02:05:31;;;;;;;2.15;1.27;;;17.70;99.90;;;;;;4962976;28;20104;-64
2023/07/16 02:07:57;;;;;;;4.40;1.40;;;17.70;99.90;;;;;;4990265;28;20455;-64
2023/07/16 02:10:23;;;;;;;5.82;1.73;;;17.60;99.90;;;;;;4985313;28;20511;-64
2023/07/16 02:12:48;;;;;;;2.97;1.33;;;17.60;99.90;;;;;;4988381;28;20510;-63
2023/07/16 02:15:14;;;;;;;3.63;1.67;;;17.60;99.90;;;;;;4972598;28;20129;-65
2023/07/16 02:17:39;;;;;;;4.95;1.70;;;17.50;99.90;;;;;;4986640;28;20026;-64
2023/07/16 02:20:07;;;;;;;6.50;1.70;;;17.50;99.90;;;;;;4983685;28;20030;-64
2023/07/16 02:22:35;;;;;;;6.25;1.30;;;17.40;99.90;;;;;;4985560;28;20050;-64
2023/07/16 02:25:00;;;;;;;2.65;1.65;;;17.30;99.90;;;;;;4991485;28;20038;-64
2023/07/16 02:27:26;;;;;;;4.00;1.40;;;17.20;99.90;;;;;;4983931;28;20037;-64
2023/07/16 02:29:52;;;;;;;6.10;1.85;;;17.20;99.90;;;;;;4967662;28;22369;-64
2023/07/16 02:32:17;;;;;;;3.33;1.50;;;17.20;99.90;;;;;;4982513;28;20726;-64
2023/07/16 02:34:43;;;;;;;2.60;1.55;;;17.10;99.90;;;;;;4982623;28;20406;-66
2023/07/16 02:37:09;;;;;;;3.75;1.38;;;17.10;99.90;;;;;;4982179;28;20053;-64
2023/07/16 02:39:34;;;;;;;4.10;1.52;;;17.10;99.90;;;;;;4982330;28;20466;-64
2023/07/16 02:42:00;;;;;;;3.35;1.77;;;17.10;99.90;;;;;;4982827;28;20046;-64
2023/07/16 02:44:25;;;;;;;5.22;1.30;;;17.00;99.90;;;;;;4983122;28;20049;-64
2023/07/16 02:46:51;;;;;;;8.82;1.83;;;17.00;99.90;;;;;;4965615;28;20073;-63
2023/07/16 02:49:17;;;;;;;7.47;1.60;;;17.00;99.90;;;;;;4965098;28;20026;-64
2023/07/16 02:51:42;;;;;;;2.35;1.10;;;16.90;99.90;;;;;;4987981;28;20035;-64
2023/07/16 02:54:08;;;;;;;2.58;1.45;;;16.90;99.90;;;;;;4987784;28;20553;-64
2023/07/16 02:56:34;;;;;;;4.10;1.50;;;16.90;99.90;;;;;;4971647;28;20053;-64
2023/07/16 02:59:00;;;;;;;3.67;1.40;;;16.80;99.90;;;;;;4970222;28;20034;-65
2023/07/16 03:01:25;;;;;;;2.72;1.13;;;16.80;99.90;;;;;;4989087;28;20037;-65
2023/07/16 03:03:51;;;;;;;10.00;1.90;;;16.80;99.90;;;;;;4983675;28;20045;-65
2023/07/16 03:06:17;;;;;;;5.68;1.73;;;16.80;99.90;;;;;;4986780;28;20089;-64
2023/07/16 03:08:42;;;;;;;5.38;1.98;;;16.80;99.90;;;;;;4987169;28;20570;-65
2023/07/16 03:11:08;;;;;;;5.80;1.52;;;16.80;99.90;;;;;;4989395;28;20144;-64
2023/07/16 03:13:33;;;;;;;5.38;1.33;;;16.80;99.90;;;;;;4986340;28;20395;-65
2023/07/16 03:15:59;;;;;;;6.03;1.45;;;16.80;99.90;;;;;;4968492;28;20031;-64
2023/07/16 03:18:32;;;;;;;7.78;1.38;;;16.80;99.90;;;;;;4971595;28;20031;-65
2023/07/16 03:20:58;;;;;;;4.15;1.50;;;16.70;99.90;;;;;;4990252;28;20051;-65
2023/07/16 03:23:24;;;;;;;4.70;1.40;;;16.60;99.90;;;;;;4989868;28;20220;-65
2023/07/16 03:25:51;;;;;;;3.28;1.40;;;16.60;99.90;;;;;;4987716;28;20021;-64
2023/07/16 03:28:16;;;;;;;5.25;1.40;;;16.60;99.90;;;;;;4968290;28;20026;-65
2023/07/16 03:30:49;;;;;;;8.32;1.83;;;16.60;99.90;;;;;;4987435;28;20113;-64
2023/07/16 03:33:15;;;;;;;9.93;1.70;;;16.50;99.90;;;;;;4989133;28;20030;-65
2023/07/16 03:35:45;;;;;;;6.20;2.38;;;16.50;99.90;;;;;;4971164;28;20040;-64
2023/07/16 03:38:11;;;;;;;6.18;1.65;;;16.50;99.90;;;;;;4989140;28;20037;-65
2023/07/16 03:40:37;;;;;;;3.60;1.45;;;16.40;99.90;;;;;;4987336;28;20446;-66
2023/07/16 03:43:03;;;;;;;4.90;1.70;;;16.40;99.90;;;;;;4985332;28;20113;-65
2023/07/16 03:45:29;;;;;;;4.25;1.50;;;16.40;99.90;;;;;;4986809;28;20022;-65
2023/07/16 03:47:54;;;;;;;3.40;1.33;;;16.40;99.90;;;;;;4971819;28;20383;-65
2023/07/16 03:50:20;;;;;;;8.55;1.50;;;16.40;99.90;;;;;;4989173;28;20113;-65
2023/07/16 03:52:45;;;;;;;3.65;1.42;;;16.40;99.90;;;;;;4988286;28;20030;-65
2023/07/16 03:55:11;;;;;;;15.63;2.47;;;16.40;99.90;;;;;;4988118;28;20626;-65
2023/07/16 03:57:36;;;;;;;5.30;1.70;;;16.40;99.90;;;;;;4988665;28;20034;-65
2023/07/16 04:00:05;;;;;;;6.40;1.40;;;16.40;99.90;;;;;;4985663;28;20116;-63
2023/07/16 04:02:31;;;;;;;4.65;1.73;;;16.30;99.90;;;;;;4984176;28;20033;-64
2023/07/16 04:04:57;;;;;;;3.95;1.48;;;16.30;99.90;;;;;;4986698;28;20399;-63
2023/07/16 04:07:22;;;;;;;10.10;2.05;;;16.40;99.90;;;;;;4987984;28;20041;-64
2023/07/16 04:09:48;;;;;;;6.65;1.40;;;16.40;99.90;;;;;;4986912;28;20523;-65
2023/07/16 04:12:13;;;;;;;7.47;1.83;;;16.50;99.90;;;;;;4985222;28;20401;-65
2023/07/16 04:14:39;;;;;;;6.15;1.73;;;16.50;99.90;;;;;;4986220;28;20022;-65
2023/07/16 04:17:05;;;;;;;4.55;1.45;;;16.50;99.90;;;;;;4986521;28;20038;-66
2023/07/16 04:19:30;;;;;;;5.18;2.53;;;16.60;99.90;;;;;;4989663;28;20114;-66
2023/07/16 04:21:56;;;;;;;3.60;1.48;;;16.60;99.90;;;;;;4985231;28;20148;-65
2023/07/16 04:24:21;;;;;;;6.90;1.80;;;16.60;99.90;;;;;;4987611;28;20014;-65
2023/07/16 04:26:47;;;;;;;5.57;1.83;;;16.70;99.90;;;;;;4985208;28;20026;-64
2023/07/16 04:29:12;;;;;;;7.60;2.10;;;16.70;99.90;;;;;;4985640;28;20041;-64
2023/07/16 04:31:38;;;;;;;7.25;1.60;;;16.80;99.90;;;;;;4985059;28;20037;-64
2023/07/16 04:34:04;;;;;;;3.15;1.50;;;16.80;99.90;;;;;;4984450;28;20031;-65
2023/07/16 04:36:29;;;;;;;6.50;1.88;;;16.90;99.90;;;;;;4985341;28;20037;-65
2023/07/16 04:38:55;;;;;;;4.53;1.27;;;17.10;99.90;;;;;;4984873;28;20030;-64
2023/07/16 04:41:20;;;;;;;5.00;1.63;;;17.60;99.90;;;;;;4985165;28;20041;-65
2023/07/16 04:43:46;;;;;;;3.00;1.00;;;18.50;99.90;;;;;;4982235;28;20134;-65
2023/07/16 04:46:11;;;;;;;5.90;1.60;;;19.70;99.90;;;;;;4985142;28;20033;-65
2023/07/16 04:48:37;;;;;;;4.13;1.13;;;20.50;99.90;;;;;;4982968;28;20427;-65
2023/07/16 04:51:03;;;;;;;5.32;1.23;;;21.40;99.90;;;;;;4985692;28;20499;-65
2023/07/16 04:53:28;;;;;;;4.68;1.35;;;22.00;99.90;;;;;;4987462;28;20093;-65
2023/07/16 04:55:54;;;;;;;6.38;1.45;;;22.70;99.80;;;;;;4990256;28;20030;-64
2023/07/16 04:58:19;;;;;;;2.88;0.90;;;23.10;98.20;;;;;;4971047;28;20528;-63
2023/07/16 05:00:45;;;;;;;5.50;1.63;;;23.40;97.10;;;;;;4988062;28;20497;-64
2023/07/16 05:03:11;;;;;;;3.33;1.30;;;23.90;95.80;;;;;;4970732;28;20121;-64
2023/07/16 05:05:36;;;;;;;4.35;1.25;;;24.40;94.50;;;;;;4986998;28;20081;-64
2023/07/16 05:08:02;;;;;;;3.90;1.40;;;24.40;93.50;;;;;;4988694;28;20458;-64
2023/07/16 05:10:28;;;;;;;6.63;1.33;;;24.80;92.30;;;;;;4990582;28;20040;-65
2023/07/16 05:12:53;;;;;;;6.20;1.55;;;25.10;91.60;;;;;;4971743;28;20045;-65
2023/07/16 05:15:19;;;;;;;4.20;1.60;;;25.00;91.40;;;;;;4969639;28;20053;-65
2023/07/16 05:17:45;;;;;;;5.88;1.70;;;25.10;91.20;;;;;;4994056;23;20035;-66
2023/07/16 05:20:10;;;;;;;3.08;1.13;;;25.50;90.20;;;;;;4974601;28;20102;-67
2023/07/16 05:22:36;;;;;;;9.13;1.50;;;25.50;90.70;;;;;;4975833;28;20026;-67
2023/07/16 05:25:02;;;;;;;6.43;1.55;;;25.70;87.90;;;;;;4978401;28;20043;-67
2023/07/16 05:27:28;;;;;;;2.80;1.20;;;25.90;87.60;;;;;;4969793;28;20512;-68
2023/07/16 05:29:54;;;;;;;2.85;1.25;;;26.10;87.30;;;;;;4964479;28;20023;-67
2023/07/16 05:32:19;;;;;;;3.17;1.55;;;26.60;86.10;;;;;;4969227;28;20078;-67
2023/07/16 05:34:45;;;;;;;5.47;1.92;;;26.70;83.00;;;;;;4970991;28;20023;-67
2023/07/16 05:37:11;;;;;;;3.10;1.38;;;26.90;81.30;;;;;;4971946;28;20031;-66
2023/07/16 05:39:37;;;;;;;4.35;1.77;;;26.80;81.60;;;;;;4967249;28;20110;-66
2023/07/16 05:42:03;;;;;;;3.28;1.20;;;27.10;80.60;;;;;;4970289;28;20041;-67
2023/07/16 05:44:29;;;;;;;5.47;1.33;;;27.30;79.40;;;;;;4972031;28;20441;-66
2023/07/16 05:46:55;;;;;;;7.10;1.90;;;27.60;78.40;;;;;;4971497;28;20103;-65
2023/07/16 05:49:20;;;;;;;9.73;1.65;;;28.00;77.20;;;;;;4967520;28;20082;-64
2023/07/16 05:51:46;;;;;;;6.07;1.60;;;28.40;76.00;;;;;;4970900;28;20045;-65
2023/07/16 05:54:11;;;;;;;4.38;1.48;;;28.80;75.00;;;;;;4967056;28;20400;-66
2023/07/16 05:56:37;;;;;;;4.97;1.70;;;28.80;74.10;;;;;;4971182;28;20030;-67
2023/07/16 05:59:02;;;;;;;5.05;1.48;;;29.10;72.60;;;;;;4959007;28;20035;-65
2023/07/16 06:01:28;;;;;;;4.07;1.52;;;28.70;72.90;;;;;;4961700;28;20524;-66
2023/07/16 06:03:54;;;;;;;5.68;1.30;;;28.40;74.10;;;;;;4966055;28;20026;-66
2023/07/16 06:06:19;;;;;;;5.00;1.92;;;28.20;72.10;;;;;;4962944;28;20408;-66
2023/07/16 06:08:45;;;;;;;7.20;2.13;;;28.40;72.70;;;;;;4963959;28;20023;-65
2023/07/16 06:11:12;;;;;;;2.63;1.80;;;28.40;71.30;;;;;;4962977;28;20037;-65
2023/07/16 06:13:38;;;;;;;3.08;1.50;;;27.90;72.10;;;;;;4966549;28;20038;-67
2023/07/16 06:16:03;;;;;;;4.70;1.58;;;27.70;72.30;;;;;;4966785;28;20039;-66
2023/07/16 06:18:29;;;;;;;9.15;1.95;;;27.80;72.60;;;;;;4966077;28;20031;-66
2023/07/16 06:20:55;;;;;;;4.90;1.90;;;27.80;72.40;;;;;;4964012;28;20033;-65
2023/07/16 06:23:21;;;;;;;6.10;1.70;;;28.00;71.40;;;;;;4964800;28;20057;-66
2023/07/16 06:25:49;;;;;;;6.20;2.28;;;28.10;70.80;;;;;;4961992;28;21372;-67
2023/07/16 06:28:15;;;;;;;2.28;1.50;;;27.60;70.90;;;;;;4962423;28;20484;-66
2023/07/16 06:30:41;;;;;;;4.60;1.75;;;27.90;70.80;;;;;;4961954;28;20034;-66
2023/07/16 06:33:07;;;;;;;8.40;3.05;;;28.30;70.40;;;;;;4963891;28;20035;-70
2023/07/16 06:35:33;;;;;;;5.75;2.10;;;28.70;69.60;;;;;;4966182;28;20033;-66
2023/07/16 06:37:58;;;;;;;6.25;3.00;;;28.70;69.40;;;;;;4965351;28;20037;-66
2023/07/16 06:40:24;;;;;;;6.70;2.60;;;28.80;68.40;;;;;;4963409;28;20035;-65
2023/07/16 06:42:50;;;;;;;6.63;2.15;;;28.60;68.30;;;;;;4956498;28;20035;-65
2023/07/16 06:45:17;;;;;;;5.10;2.03;;;29.00;67.10;;;;;;4965092;28;20023;-65
2023/07/16 06:47:43;;;;;;;6.32;2.47;;;28.90;67.20;;;;;;4962857;28;20400;-65
2023/07/16 06:50:09;;;;;;;7.63;2.28;;;28.70;66.70;;;;;;4964738;28;20027;-66
2023/07/16 06:52:35;;;;;;;5.05;2.38;;;27.90;69.10;;;;;;4967957;28;20035;-65
2023/07/16 06:55:00;;;;;;;6.75;2.08;;;26.80;69.40;;;;;;4963721;28;20023;-65
2023/07/16 06:57:26;;;;;;;8.15;2.40;;;25.90;72.60;;;;;;4966830;28;20031;-65
2023/07/16 06:59:51;;;;;;;5.55;2.20;;;26.40;71.80;;;;;;4958538;28;20400;-64
2023/07/16 07:02:18;;;;;;;6.53;2.40;;;26.70;70.30;;;;;;4960828;28;20034;-66
2023/07/16 07:04:44;;;;;;;5.10;2.00;;;27.30;70.20;;;;;;4966748;28;20027;-67
2023/07/16 07:07:09;;;;;;;5.38;2.08;;;28.40;69.90;;;;;;4967805;28;20031;-66
2023/07/16 07:09:35;;;;;;;5.95;2.25;;;28.30;67.80;;;;;;4966374;28;20035;-66
2023/07/16 07:12:01;;;;;;;7.38;2.72;;;29.20;68.00;;;;;;4965625;28;20113;-66
2023/07/16 07:14:27;;;;;;;4.68;2.00;;;29.70;66.00;;;;;;4966915;28;20053;-68
2023/07/16 07:16:52;;;;;;;8.13;2.30;;;29.60;65.80;;;;;;4968912;28;20500;-66
2023/07/16 07:19:18;;;;;;;4.82;2.30;;;30.00;66.20;;;;;;4968237;28;20468;-66
2023/07/16 07:21:44;;;;;;;8.07;2.63;;;29.90;64.80;;;;;;4970565;28;20102;-67
2023/07/16 07:24:09;;;;;;;6.60;2.47;;;30.00;64.20;;;;;;4984640;28;20189;-67
2023/07/16 07:26:35;;;;;;;3.47;2.33;;;30.10;62.10;;;;;;4965064;28;20102;-65
2023/07/16 07:29:00;;;;;;;8.02;2.30;;;30.40;63.20;;;;;;4967637;28;20110;-65
2023/07/16 07:31:26;;;;;;;6.63;2.50;;;30.40;64.10;;;;;;4970864;28;20037;-67
2023/07/16 07:33:53;;;;;;;6.32;2.63;;;30.50;62.40;;;;;;4967141;28;20113;-66
2023/07/16 07:36:19;;;;;;;7.93;2.65;;;29.50;62.60;;;;;;4967843;28;20033;-65
2023/07/16 07:38:45;;;;;;;6.55;2.92;;;29.70;62.70;;;;;;4963540;28;20031;-66
2023/07/16 07:41:10;;;;;;;4.25;2.25;;;29.50;61.90;;;;;;4970236;28;20114;-67
2023/07/16 07:43:36;;;;;;;7.25;2.80;;;30.00;61.60;;;;;;4971077;28;20023;-67
2023/07/16 07:46:01;;;;;;;4.55;2.35;;;30.50;60.80;;;;;;4968679;28;20041;-66
2023/07/16 07:48:27;;;;;;;7.22;2.97;;;29.40;61.80;;;;;;4970934;28;20039;-66
2023/07/16 07:50:53;;;;;;;7.10;3.00;;;28.30;63.80;;;;;;4968981;28;20115;-65
2023/07/16 07:53:18;;;;;;;4.63;2.60;;;28.10;63.80;;;;;;4967973;28;20392;-66
2023/07/16 07:55:45;;;;;;;5.50;3.05;;;28.60;62.80;;;;;;4966376;28;20128;-66
2023/07/16 07:58:11;;;;;;;5.40;3.17;;;28.20;62.20;;;;;;4971804;28;20030;-66
2023/07/16 08:00:37;;;;;;;5.13;2.55;;;27.90;65.90;;;;;;4968715;28;20038;-67
2023/07/16 08:03:03;;;;;;;7.05;2.10;;;27.60;65.00;;;;;;4964555;28;20409;-66
2023/07/16 08:05:28;;;;;;;4.68;2.38;;;27.40;64.40;;;;;;4965885;28;20046;-67
2023/07/16 08:07:55;;;;;;;3.85;2.28;;;27.20;65.00;;;;;;4968077;28;20023;-66
2023/07/16 08:10:21;;;;;;;6.93;2.50;;;27.60;64.30;;;;;;4967435;28;20031;-67
2023/07/16 08:12:47;;;;;;;7.40;3.30;;;28.50;64.90;;;;;;4966906;28;20056;-66
2023/07/16 08:15:16;;;;;;;5.30;2.65;;;29.90;62.20;;;;;;4962508;28;20110;-65
2023/07/16 08:17:42;;;;;;;5.72;2.95;;;29.80;60.60;;;;;;4967606;28;20026;-68
2023/07/16 08:20:09;;;;;;;8.25;2.50;;;29.70;60.30;;;;;;4967507;28;20049;-68
2023/07/16 08:22:34;;;;;;;6.88;2.63;;;29.20;61.00;;;;;;4968210;28;20029;-68
2023/07/16 08:25:00;;;;;;;4.28;2.75;;;28.90;61.00;;;;;;4972574;28;20035;-68
2023/07/16 08:27:25;;;;;;;5.22;2.65;;;29.40;61.10;;;;;;4972184;28;20026;-67
2023/07/16 08:29:51;;;;;;;6.53;2.78;;;29.20;62.50;;;;;;4969240;28;20125;-68
2023/07/16 08:32:16;;;;;;;6.82;2.60;;;29.00;61.00;;;;;;4969162;28;20039;-67
2023/07/16 08:34:42;;;;;;;5.00;3.35;;;29.40;60.30;;;;;;4968742;28;20041;-66
2023/07/16 08:37:08;;;;;;;5.30;2.60;;;29.30;60.10;;;;;;4966327;28;20065;-68
2023/07/16 08:39:33;;;;;;;5.82;2.58;;;29.20;60.20;;;;;;4965805;28;20041;-67
2023/07/16 08:41:59;;;;;;;5.43;2.30;;;29.70;60.70;;;;;;4965569;28;20039;-67
2023/07/16 08:44:26;;;;;;;4.90;2.80;;;30.40;60.10;;;;;;4966763;28;20034;-67
2023/07/16 08:46:52;;;;;;;7.80;2.75;;;30.90;58.70;;;;;;4967459;28;20030;-66
2023/07/16 08:49:19;;;;;;;4.55;2.70;;;30.80;58.40;;;;;;4966323;28;20026;-67
2023/07/16 08:51:48;;;;;;;5.63;2.67;;;30.80;59.00;;;;;;4971951;28;20049;-67
2023/07/16 08:54:16;;;;;;;7.13;3.35;;;30.10;57.50;;;;;;4969058;28;20422;-68
2023/07/16 08:56:45;;;;;;;5.15;3.00;;;29.20;59.40;;;;;;4962690;28;20027;-67
2023/07/16 08:59:11;;;;;;;8.73;2.67;;;29.20;59.70;;;;;;4964817;28;20043;-67
2023/07/16 09:01:37;;;;;;;5.72;2.78;;;29.00;59.80;;;;;;4968999;28;20503;-67
2023/07/16 09:04:03;;;;;;;5.90;2.90;;;28.90;60.10;;;;;;4962615;28;20471;-68
2023/07/16 09:06:29;;;;;;;7.15;2.72;;;28.80;59.30;;;;;;4967961;28;20103;-67
2023/07/16 09:08:55;;;;;;;5.18;3.00;;;29.00;58.80;;;;;;4963192;28;20039;-65
2023/07/16 09:11:22;;;;;;;6.90;3.05;;;29.40;59.00;;;;;;4970861;28;20132;-67
2023/07/16 09:13:48;;;;;;;5.63;2.88;;;29.20;59.20;;;;;;4967988;28;20031;-68
2023/07/16 09:16:16;;;;;;;8.80;3.10;;;29.40;58.40;;;;;;4967554;28;20050;-67
2023/07/16 09:18:42;;;;;;;3.95;2.42;;;29.00;59.30;;;;;;4973068;28;20867;-66
2023/07/16 09:21:08;;;;;;;5.28;2.97;;;28.80;59.20;;;;;;4968484;28;20035;-67
2023/07/16 09:23:34;;;;;;;4.10;2.67;;;29.50;59.50;;;;;;4964546;28;20542;-66
2023/07/16 09:26:00;;;;;;;7.10;2.55;;;30.50;59.00;;;;;;4969771;28;20027;-66
2023/07/16 09:28:26;;;;;;;6.97;2.30;;;30.20;59.90;;;;;;4972503;28;20027;-65
2023/07/16 09:30:52;;;;;;;4.18;2.40;;;30.10;56.80;;;;;;4972029;28;20031;-65
2023/07/16 09:33:20;;;;;;;3.33;2.25;;;29.70;57.90;;;;;;4969459;28;20026;-66
2023/07/16 09:35:48;;;;;;;4.85;2.17;;;29.20;58.70;;;;;;4967363;28;20110;-67
2023/07/16 09:38:15;;;;;;;8.10;2.50;;;29.20;58.80;;;;;;4967893;28;20169;-67
2023/07/16 09:40:44;;;;;;;5.97;2.22;;;29.30;58.30;;;;;;4970845;28;20110;-66
2023/07/16 09:43:13;;;;;;;5.40;2.50;;;29.50;59.20;;;;;;4967991;28;20561;-67
2023/07/16 09:45:39;;;;;;;3.83;2.20;;;29.30;58.30;;;;;;4969787;28;20023;-64
2023/07/16 09:48:05;;;;;;;6.40;2.35;;;29.50;60.00;;;;;;4961120;28;20047;-66
2023/07/16 09:50:35;;;;;;;3.70;2.10;;;29.60;60.00;;;;;;4966755;28;20046;-67
2023/07/16 09:53:04;;;;;;;4.90;2.13;;;29.50;59.10;;;;;;4965210;28;20369;-65
2023/07/16 09:55:33;;;;;;;6.32;2.33;;;30.00;59.60;;;;;;4967103;28;20027;-66
2023/07/16 09:58:01;;;;;;;6.53;2.13;;;30.40;59.10;;;;;;4964663;28;20023;-66
2023/07/16 10:00:28;;;;;;;2.78;1.90;;;30.80;57.40;;;;;;4963725;28;20031;-66
2023/07/16 10:02:54;;;;;;;4.60;1.90;;;30.30;57.70;;;;;;4966839;28;20081;-65
2023/07/16 10:05:28;;;;;;;5.53;2.35;;;30.30;57.80;;;;;;4965182;28;20081;-65
2023/07/16 10:07:59;;;;;;;7.70;2.55;;;29.60;59.90;;;;;;4964452;28;20492;-65
2023/07/16 10:10:40;;;;;;;3.58;2.22;;;29.40;58.90;;;;;;4966605;28;20102;-65
2023/07/16 10:13:08;;;;;;;5.03;1.80;;;29.30;59.90;;;;;;4961492;28;20061;-64
2023/07/16 10:15:34;;;;;;;4.72;2.05;;;29.10;59.10;;;;;;4965354;28;20395;-66
2023/07/16 10:18:00;;;;;;;6.70;2.72;;;28.90;60.50;;;;;;4964219;28;20420;-65
2023/07/16 10:20:30;;;;;;;6.00;2.55;;;28.30;60.60;;;;;;4965334;28;20058;-62
2023/07/16 10:22:56;;;;;;;6.85;2.35;;;27.50;60.90;;;;;;4965903;28;20019;-65
2023/07/16 10:25:24;;;;;;;3.65;1.90;;;27.70;62.10;;;;;;4971060;28;20023;-65
2023/07/16 10:27:51;;;;;;;5.28;2.00;;;27.60;61.00;;;;;;4965377;28;20412;-67
2023/07/16 10:30:17;;;;;;;4.53;2.10;;;27.40;61.80;;;;;;4969659;28;20035;-66
2023/07/16 10:32:44;;;;;;;6.00;2.20;;;27.40;63.30;;;;;;4964585;28;20030;-65
2023/07/16 10:35:10;;;;;;;5.22;2.58;;;27.50;63.50;;;;;;4965417;28;20026;-65
2023/07/16 10:37:37;;;;;;;4.88;2.08;;;27.70;63.00;;;;;;4966048;28;20037;-67
2023/07/16 10:40:04;;;;;;;6.65;2.25;;;27.80;61.60;;;;;;4959934;28;20034;-66
2023/07/16 10:42:31;;;;;;;3.20;1.77;;;27.80;61.90;;;;;;4960524;28;20046;-66
2023/07/16 10:45:01;;;;;;;4.78;2.20;;;28.00;61.30;;;;;;4965915;28;20023;-66
2023/07/16 10:47:35;;;;;;;5.72;2.30;;;28.10;59.80;;;;;;4960235;28;20050;-65
2023/07/16 10:50:02;;;;;;;;;;;27.00;61.90;;;;;;4962388;28;20027;-66
2023/07/16 10:52:28;;;;;;;4.05;1.80;;;26.90;63.60;;;;;;4964948;28;19910;-65
2023/07/16 10:54:57;;;;;;;5.43;1.90;;;27.40;63.40;;;;;;4961901;28;20073;-63
2023/07/16 10:57:24;;;;;;;9.35;2.35;;;27.20;63.00;;;;;;4961251;28;20027;-67
2023/07/16 10:59:51;;;;;;;3.47;2.10;;;26.70;63.70;;;;;;4957498;28;20023;-66
2023/07/16 11:02:17;;;;;;;4.57;1.90;;;26.70;62.70;;;;;;4967165;28;20055;-66
2023/07/16 11:04:44;;;;;;;5.50;1.70;;;26.60;63.40;;;;;;4965172;28;20019;-66
2023/07/16 11:07:12;;;;;;;5.75;2.33;;;26.60;62.60;;;;;;4982306;28;20023;-66
2023/07/16 11:09:48;;;;;;;5.68;1.92;;;26.60;62.80;;;;;;4961613;28;20086;-66
2023/07/16 11:12:15;;;;;;;1.98;1.60;;;26.50;62.50;;;;;;4969235;28;20027;-67
2023/07/16 11:14:52;;;;;;;7.72;2.03;;;26.00;62.10;;;;;;4969397;28;20499;-66
2023/07/16 11:17:19;;;;;;;3.05;1.63;;;26.40;65.30;;;;;;4962288;28;20034;-66
2023/07/16 11:19:47;;;;;;;8.23;1.98;;;26.60;62.80;;;;;;4963062;28;20037;-66
2023/07/16 11:22:13;;;;;;;6.50;2.00;;;26.50;63.60;;;;;;4970610;28;20023;-66
2023/07/16 11:24:50;;;;;;;3.80;2.05;;;26.80;62.60;;;;;;4971040;28;20488;-67
2023/07/16 11:27:18;;;;;;;6.30;2.30;;;26.90;62.40;;;;;;4969513;28;20027;-66
2023/07/16 11:29:53;;;;;;;7.28;2.47;;;27.00;63.40;;;;;;4968941;28;20472;-66
2023/07/16 11:32:58;;;;;;;5.25;2.05;;;27.20;62.30;;;;;;4969152;28;20065;-66
2023/07/16 11:35:23;;;;;;;3.38;2.13;;;26.90;63.30;;;;;;4889516;29;20093;-66
2023/07/16 11:37:49;;;;;;;6.40;2.35;;;27.20;62.50;;;;;;4892185;29;20037;-68
2023/07/16 11:40:19;;;;;;;5.55;2.72;;;27.40;63.40;;;;;;4923013;28;20047;-66
2023/07/16 11:42:45;;;;;;;6.47;1.95;;;27.70;61.40;;;;;;4952655;28;20131;-66
2023/07/16 11:45:27;;;;;;;6.05;1.95;;;27.60;61.70;;;;;;4997233;23;20060;-66
2023/07/16 11:47:53;;;;;;;4.88;2.13;;;27.80;61.40;;;;;;5006292;28;20455;-67
2023/07/16 11:50:19;;;;;;;5.03;2.00;;;27.40;62.20;;;;;;5006507;28;20116;-64
2023/07/16 11:52:56;;;;;;;3.78;1.90;;;27.40;62.60;;;;;;5008544;28;20561;-64
2023/07/16 11:55:22;;;;;;;7.13;2.70;;;27.50;62.20;;;;;;5012240;28;20033;-63
2023/07/16 11:57:48;;;;;;;5.00;2.08;;;27.80;63.00;;;;;;5008312;28;20033;-64
2023/07/16 12:00:14;;;;;;;6.07;2.30;;;27.80;61.20;;;;;;5007995;28;20034;-63
2023/07/16 12:02:39;;;;;;;6.13;2.33;;;27.60;61.70;;;;;;5003831;28;20034;-63
2023/07/16 12:05:05;;;;;;;4.10;2.05;;;27.70;61.90;;;;;;5007136;28;20030;-63
2023/07/16 12:07:37;;;;;;;4.95;1.88;;;27.50;62.10;;;;;;5007862;28;20025;-63
2023/07/16 12:10:05;;;;;;;9.17;1.97;;;27.60;61.70;;;;;;5008633;28;20121;-63
2023/07/16 12:12:31;;;;;;;7.43;2.08;;;27.50;61.60;;;;;;4985693;28;20030;-63
2023/07/16 12:14:56;;;;;;;6.80;2.13;;;27.20;61.30;;;;;;5005302;28;20034;-63
2023/07/16 12:17:22;;;;;;;4.43;1.98;;;27.10;62.10;;;;;;5001315;28;20030;-64
2023/07/16 12:19:48;;;;;;;3.97;1.70;;;27.10;61.80;;;;;;4998017;28;20034;-64
2023/07/16 12:22:17;;;;;;;4.78;2.08;;;27.50;62.90;;;;;;4999219;28;20414;-64
2023/07/16 12:24:43;;;;;;;3.03;1.98;;;27.80;62.10;;;;;;5002686;28;20022;-65
2023/07/16 12:27:09;;;;;;;4.05;2.40;;;27.70;62.20;;;;;;5003293;28;20033;-63
2023/07/16 12:29:34;;;;;;;4.68;2.20;;;27.50;60.20;;;;;;4995548;28;20093;-64
2023/07/16 12:32:00;;;;;;;5.65;2.33;;;27.30;62.30;;;;;;5001728;28;20041;-65
2023/07/16 12:34:26;;;;;;;5.72;1.90;;;27.40;61.80;;;;;;5001449;28;21218;-64
2023/07/16 12:36:51;;;;;;;4.68;1.60;;;27.20;61.30;;;;;;5009687;28;20037;-63
2023/07/16 12:39:17;;;;;;;6.20;1.95;;;27.40;60.90;;;;;;5010518;28;20037;-63
2023/07/16 12:41:46;;;;;;;5.43;2.10;;;27.20;61.20;;;;;;5006213;28;20479;-64
2023/07/16 12:44:12;;;;;;;10.25;2.17;;;26.90;60.70;;;;;;5006673;28;20029;-65
2023/07/16 12:46:37;;;;;;;6.03;2.28;;;26.90;62.00;;;;;;5006925;28;20399;-65